sensor_id;sensor_type;location;lat;lon;timestamp;pressure;altitude;pressure_sealevel;temperature;humidity
71195;BME280;58908;51.426;7.714;2023-02-21T00:01:53;100191.13;;;7.26;100.00
71195;BME280;58908;51.426;7.714;2023-02-21T00:04:39;100192.06;;;7.25;100.00
71195;BME280;58908;51.426;7.714;2023-02-21T00:07:23;100190.31;;;7.25;100.00
71195;BME280;58908;51.426;7.714;2023-02-21T00:10:07;100184.34;;;7.20;100.00
71195;BME280;58908;51.426;7.714;2023-02-21T00:12:52;100195.66;;;7.22;100.00
71195;BME280;58908;51.426;7.714;2023-02-21T00:15:35;100193.88;;;7.23;100.00
71195;BME280;58908;51.426;7.714;2023-02-21T00:18:19;100194.78;;;7.22;100.00
71195;BME280;58908;51.426;7.714;2023-02-21T00:21:05;100193.09;;;7.21;100.00
71195;BME280;58908;51.426;7.714;2023-02-21T00:23:49;100201.00;;;7.19;100.00
71195;BME280;58908;51.426;7.714;2023-02-21T00:26:32;100195.88;;;7.16;100.00
71195;BME280;58908;51.426;7.714;2023-02-21T00:29:16;100195.88;;;7.16;100.00
71195;BME280;58908;51.426;7.714;2023-02-21T00:32:00;100190.63;;;7.16;100.00
71195;BME280;58908;51.426;7.714;2023-02-21T00:34:44;100196.03;;;7.12;100.00
71195;BME280;58908;51.426;7.714;2023-02-21T00:37:29;100199.47;;;7.14;100.00
71195;BME280;58908;51.426;7.714;2023-02-21T00:40:14;100195.88;;;7.16;100.00
71195;BME280;58908;51.426;7.714;2023-02-21T00:42:58;100191.53;;;7.15;100.00
71195;BME280;58908;51.426;7.714;2023-02-21T00:45:42;100195.09;;;7.14;100.00
71195;BME280;58908;51.426;7.714;2023-02-21T00:48:26;100191.72;;;7.11;100.00
71195;BME280;58908;51.426;7.714;2023-02-21T00:51:10;100195.38;;;7.07;100.00
71195;BME280;58908;51.426;7.714;2023-02-21T00:53:56;100187.41;;;7.08;100.00
71195;BME280;58908;51.426;7.714;2023-02-21T00:56:40;100174.38;;;7.07;100.00
71195;BME280;58908;51.426;7.714;2023-02-21T00:59:24;100183.16;;;7.06;100.00
71195;BME280;58908;51.426;7.714;2023-02-21T01:02:07;100183.16;;;7.06;100.00
71195;BME280;58908;51.426;7.714;2023-02-21T01:04:51;100184.03;;;7.05;100.00
71195;BME280;58908;51.426;7.714;2023-02-21T01:07:35;100178.13;;;7.00;100.00
71195;BME280;58908;51.426;7.714;2023-02-21T01:10:20;100185.84;;;7.04;100.00
71195;BME280;58908;51.426;7.714;2023-02-21T01:13:04;100183.38;;;7.00;100.00
71195;BME280;58908;51.426;7.714;2023-02-21T01:15:48;100191.19;;;7.02;100.00
71195;BME280;58908;51.426;7.714;2023-02-21T01:18:32;100181.66;;;6.99;100.00
71195;BME280;58908;51.426;7.714;2023-02-21T01:21:16;100189.66;;;6.96;100.00
71195;BME280;58908;51.426;7.714;2023-02-21T01:24:01;100197.28;;;7.02;100.00
71195;BME280;58908;51.426;7.714;2023-02-21T01:26:46;100192.09;;;7.01;100.00
71195;BME280;58908;51.426;7.714;2023-02-21T01:29:30;100182.63;;;6.97;100.00
71195;BME280;58908;51.426;7.714;2023-02-21T01:32:14;100185.31;;;6.95;100.00
71195;BME280;58908;51.426;7.714;2023-02-21T01:34:58;100176.47;;;6.97;100.00
71195;BME280;58908;51.426;7.714;2023-02-21T01:37:42;100176.53;;;6.96;100.00
71195;BME280;58908;51.426;7.714;2023-02-21T01:40:26;100179.19;;;6.95;100.00
71195;BME280;58908;51.426;7.714;2023-02-21T01:43:14;100180.13;;;6.94;100.00
71195;BME280;58908;51.426;7.714;2023-02-21T01:45:57;100178.25;;;6.97;100.00
71195;BME280;58908;51.426;7.714;2023-02-21T01:48:41;100185.19;;;6.98;100.00
71195;BME280;58908;51.426;7.714;2023-02-21T01:51:26;100180.75;;;7.00;100.00
71195;BME280;58908;51.426;7.714;2023-02-21T01:54:11;100190.31;;;7.01;100.00
71195;BME280;58908;51.426;7.714;2023-02-21T01:56:55;100179.00;;;7.01;100.00
71195;BME280;58908;51.426;7.714;2023-02-21T01:59:43;100184.31;;;6.97;100.00
71195;BME280;58908;51.426;7.714;2023-02-21T02:02:28;100174.63;;;6.99;100.00
71195;BME280;58908;51.426;7.714;2023-02-21T02:05:14;100180.78;;;6.98;100.00
71195;BME280;58908;51.426;7.714;2023-02-21T02:07:58;100173.75;;;7.01;100.00
71195;BME280;58908;51.426;7.714;2023-02-21T02:10:42;100168.50;;;7.01;100.00
71195;BME280;58908;51.426;7.714;2023-02-21T02:13:34;100170.22;;;7.02;100.00
71195;BME280;58908;51.426;7.714;2023-02-21T02:16:09;100164.91;;;7.03;100.00
71195;BME280;58908;51.426;7.714;2023-02-21T02:18:49;100161.34;;;7.04;100.00
71195;BME280;58908;51.426;7.714;2023-02-21T02:27:06;100159.56;;;7.06;100.00
71195;BME280;58908;51.426;7.714;2023-02-21T02:29:53;100156.06;;;7.05;100.00
71195;BME280;58908;51.426;7.714;2023-02-21T02:32:36;100155.16;;;7.06;100.00
71195;BME280;58908;51.426;7.714;2023-02-21T02:35:04;100158.66;;;7.07;100.00
71195;BME280;58908;51.426;7.714;2023-02-21T02:37:34;100165.66;;;7.06;100.00
71195;BME280;58908;51.426;7.714;2023-02-21T02:40:08;100165.59;;;7.08;100.00
71195;BME280;58908;51.426;7.714;2023-02-21T02:42:41;100171.59;;;7.11;100.00
71195;BME280;58908;51.426;7.714;2023-02-21T02:45:13;100162.91;;;7.09;100.00
71195;BME280;58908;51.426;7.714;2023-02-21T02:47:43;100157.78;;;7.06;100.00
71195;BME280;58908;51.426;7.714;2023-02-21T02:50:12;100159.66;;;7.03;100.00
71195;BME280;58908;51.426;7.714;2023-02-21T02:52:48;100159.59;;;7.04;100.00
71195;BME280;58908;51.426;7.714;2023-02-21T02:55:20;100155.19;;;7.05;100.00
71195;BME280;58908;51.426;7.714;2023-02-21T02:57:47;100169.19;;;7.05;100.00
71195;BME280;58908;51.426;7.714;2023-02-21T03:00:15;100162.38;;;7.00;100.00
71195;BME280;58908;51.426;7.714;2023-02-21T03:02:46;100165.00;;;7.00;100.00
71195;BME280;58908;51.426;7.714;2023-02-21T03:05:22;100156.28;;;6.99;100.00
71195;BME280;58908;51.426;7.714;2023-02-21T03:07:56;100150.19;;;6.99;100.00
71195;BME280;58908;51.426;7.714;2023-02-21T03:10:26;100150.22;;;6.97;100.00
71195;BME280;58908;51.426;7.714;2023-02-21T03:12:56;100143.41;;;6.94;100.00
71195;BME280;58908;51.426;7.714;2023-02-21T03:15:26;100145.28;;;6.90;100.00
71195;BME280;58908;51.426;7.714;2023-02-21T03:17:58;100147.06;;;6.90;100.00
71195;BME280;58908;51.426;7.714;2023-02-21T03:20:29;100151.31;;;6.92;100.00
71195;BME280;58908;51.426;7.714;2023-02-21T03:22:57;100155.75;;;6.90;100.00
71195;BME280;58908;51.426;7.714;2023-02-21T03:25:25;100154.84;;;6.91;100.00
71195;BME280;58908;51.426;7.714;2023-02-21T03:27:52;100156.50;;;6.94;100.00
71195;BME280;58908;51.426;7.714;2023-02-21T03:30:19;100149.56;;;6.93;100.00
71195;BME280;58908;51.426;7.714;2023-02-21T03:32:46;100150.47;;;6.92;100.00
71195;BME280;58908;51.426;7.714;2023-02-21T03:35:14;100154.94;;;6.90;100.00
71195;BME280;58908;51.426;7.714;2023-02-21T03:37:42;100154.00;;;6.91;100.00
71195;BME280;58908;51.426;7.714;2023-02-21T03:40:10;100153.19;;;6.89;100.00
71195;BME280;58908;51.426;7.714;2023-02-21T03:42:38;100146.19;;;6.89;100.00
71195;BME280;58908;51.426;7.714;2023-02-21T03:45:04;100140.94;;;6.89;100.00
71195;BME280;58908;51.426;7.714;2023-02-21T03:47:30;100142.69;;;6.89;100.00
71195;BME280;58908;51.426;7.714;2023-02-21T03:49:56;100138.44;;;6.86;100.00
71195;BME280;58908;51.426;7.714;2023-02-21T03:52:23;100147.06;;;6.90;100.00
71195;BME280;58908;51.426;7.714;2023-02-21T03:54:50;100148.06;;;6.86;100.00
71195;BME280;58908;51.426;7.714;2023-02-21T03:57:16;100140.19;;;6.86;100.00
71195;BME280;58908;51.426;7.714;2023-02-21T03:59:43;100140.03;;;6.90;100.00
71195;BME280;58908;51.426;7.714;2023-02-21T04:02:09;100140.94;;;6.89;100.00
71195;BME280;58908;51.426;7.714;2023-02-21T04:04:35;100132.31;;;6.86;100.00
71195;BME280;58908;51.426;7.714;2023-02-21T04:07:01;100145.28;;;6.90;100.00
71195;BME280;58908;51.426;7.714;2023-02-21T04:09:28;100137.38;;;6.92;100.00
71195;BME280;58908;51.426;7.714;2023-02-21T04:11:55;100135.59;;;6.92;100.00
71195;BME280;58908;51.426;7.714;2023-02-21T04:14:21;100136.44;;;6.93;100.00
71195;BME280;58908;51.426;7.714;2023-02-21T04:16:48;100136.44;;;6.93;100.00
71195;BME280;58908;51.426;7.714;2023-02-21T04:19:14;100155.66;;;6.93;100.00
71195;BME280;58908;51.426;7.714;2023-02-21T04:21:40;100146.06;;;6.92;100.00
71195;BME280;58908;51.426;7.714;2023-02-21T04:24:06;100148.59;;;6.95;100.00
71195;BME280;58908;51.426;7.714;2023-02-21T04:26:33;100145.91;;;6.97;100.00
71195;BME280;58908;51.426;7.714;2023-02-21T04:29:00;100153.72;;;6.98;100.00
71195;BME280;58908;51.426;7.714;2023-02-21T04:31:27;100147.69;;;6.96;100.00
71195;BME280;58908;51.426;7.714;2023-02-21T04:33:53;100145.06;;;6.96;100.00
71195;BME280;58908;51.426;7.714;2023-02-21T04:36:19;100150.19;;;6.99;100.00
71195;BME280;58908;51.426;7.714;2023-02-21T04:38:45;100143.25;;;6.98;100.00
71195;BME280;58908;51.426;7.714;2023-02-21T04:41:12;100150.16;;;7.01;100.00
71195;BME280;58908;51.426;7.714;2023-02-21T04:43:40;100139.75;;;6.97;100.00
71195;BME280;58908;51.426;7.714;2023-02-21T04:46:08;100141.41;;;7.00;100.00
71195;BME280;58908;51.426;7.714;2023-02-21T04:48:34;100136.91;;;7.03;100.00
71195;BME280;58908;51.426;7.714;2023-02-21T04:51:00;100134.22;;;7.05;100.00
71195;BME280;58908;51.426;7.714;2023-02-21T04:53:26;100139.56;;;7.02;100.00
71195;BME280;58908;51.426;7.714;2023-02-21T04:55:53;100143.06;;;7.03;100.00
71195;BME280;58908;51.426;7.714;2023-02-21T04:58:19;100135.13;;;7.04;100.00
71195;BME280;58908;51.426;7.714;2023-02-21T05:00:45;100136.84;;;7.05;100.00
71195;BME280;58908;51.426;7.714;2023-02-21T05:03:13;100141.25;;;7.04;100.00
71195;BME280;58908;51.426;7.714;2023-02-21T05:05:39;100141.25;;;7.04;100.00
71195;BME280;58908;51.426;7.714;2023-02-21T05:08:05;100145.56;;;7.05;100.00
71195;BME280;58908;51.426;7.714;2023-02-21T05:10:32;100142.09;;;7.05;100.00
71195;BME280;58908;51.426;7.714;2023-02-21T05:12:58;100136.91;;;7.03;100.00
71195;BME280;58908;51.426;7.714;2023-02-21T05:15:24;100146.44;;;7.06;100.00
71195;BME280;58908;51.426;7.714;2023-02-21T05:17:50;100147.41;;;7.03;100.00
71195;BME280;58908;51.426;7.714;2023-02-21T05:20:18;100149.94;;;7.05;100.00
71195;BME280;58908;51.426;7.714;2023-02-21T05:22:45;100154.34;;;7.04;100.00
71195;BME280;58908;51.426;7.714;2023-02-21T05:25:14;100155.19;;;7.05;100.00
71195;BME280;58908;51.426;7.714;2023-02-21T05:27:40;100155.16;;;7.06;100.00
71195;BME280;58908;51.426;7.714;2023-02-21T05:30:07;100155.19;;;7.05;100.00
71195;BME280;58908;51.426;7.714;2023-02-21T05:32:33;100149.94;;;7.05;100.00
71195;BME280;58908;51.426;7.714;2023-02-21T05:35:00;100149.16;;;7.03;100.00
71195;BME280;58908;51.426;7.714;2023-02-21T05:37:27;100144.78;;;7.03;100.00
71195;BME280;58908;51.426;7.714;2023-02-21T05:39:53;100148.47;;;6.98;100.00
71195;BME280;58908;51.426;7.714;2023-02-21T05:42:20;100142.19;;;7.02;100.00
71195;BME280;58908;51.426;7.714;2023-02-21T05:44:46;100138.00;;;6.98;100.00
71195;BME280;58908;51.426;7.714;2023-02-21T05:47:12;100145.06;;;6.96;100.00
71195;BME280;58908;51.426;7.714;2023-02-21T05:49:39;100139.88;;;6.95;100.00
71195;BME280;58908;51.426;7.714;2023-02-21T05:52:06;100144.25;;;6.94;100.00
71195;BME280;58908;51.426;7.714;2023-02-21T05:54:34;100147.72;;;6.95;100.00
71195;BME280;58908;51.426;7.714;2023-02-21T05:57:00;100139.00;;;6.94;100.00
71195;BME280;58908;51.426;7.714;2023-02-21T05:59:27;100142.53;;;6.93;100.00
71195;BME280;58908;51.426;7.714;2023-02-21T06:01:53;100144.31;;;6.93;100.00
71195;BME280;58908;51.426;7.714;2023-02-21T06:04:19;100147.91;;;6.90;100.00
71195;BME280;58908;51.426;7.714;2023-02-21T06:06:46;100144.34;;;6.91;100.00
71195;BME280;58908;51.426;7.714;2023-02-21T06:09:12;100134.78;;;6.90;100.00
71195;BME280;58908;51.426;7.714;2023-02-21T06:11:40;100125.09;;;6.92;100.00
71195;BME280;58908;51.426;7.714;2023-02-21T06:14:07;100126.09;;;6.90;100.00
71195;BME280;58908;51.426;7.714;2023-02-21T06:16:34;100126.91;;;6.90;100.00
71195;BME280;58908;51.426;7.714;2023-02-21T06:19:01;100128.63;;;6.91;100.00
71195;BME280;58908;51.426;7.714;2023-02-21T06:21:28;100118.13;;;6.91;100.00
71195;BME280;58908;51.426;7.714;2023-02-21T06:23:54;100121.69;;;6.90;100.00
71195;BME280;58908;51.426;7.714;2023-02-21T06:26:21;100119.97;;;6.89;100.00
71195;BME280;58908;51.426;7.714;2023-02-21T06:28:49;100116.44;;;6.90;100.00
71195;BME280;58908;51.426;7.714;2023-02-21T06:31:15;100116.38;;;6.92;100.00
71195;BME280;58908;51.426;7.714;2023-02-21T06:33:41;100114.59;;;6.92;100.00
71195;BME280;58908;51.426;7.714;2023-02-21T06:36:09;100111.97;;;6.92;100.00
71195;BME280;58908;51.426;7.714;2023-02-21T06:38:37;100115.50;;;6.91;100.00
71195;BME280;58908;51.426;7.714;2023-02-21T06:41:04;100119.00;;;6.92;100.00
71195;BME280;58908;51.426;7.714;2023-02-21T06:43:30;100124.25;;;6.92;100.00
71195;BME280;58908;51.426;7.714;2023-02-21T06:45:58;100122.44;;;6.94;100.00
71195;BME280;58908;51.426;7.714;2023-02-21T06:48:24;100122.44;;;6.94;100.00
71195;BME280;58908;51.426;7.714;2023-02-21T06:50:50;100122.47;;;6.92;100.00
71195;BME280;58908;51.426;7.714;2023-02-21T06:53:17;100120.75;;;6.91;100.00
71195;BME280;58908;51.426;7.714;2023-02-21T06:55:43;100126.81;;;6.93;100.00
71195;BME280;58908;51.426;7.714;2023-02-21T06:58:09;100126.00;;;6.91;100.00
71195;BME280;58908;51.426;7.714;2023-02-21T07:00:35;100130.28;;;6.94;100.00
71195;BME280;58908;51.426;7.714;2023-02-21T07:03:03;100127.63;;;6.95;100.00
71195;BME280;58908;51.426;7.714;2023-02-21T07:05:29;100131.88;;;6.97;100.00
71195;BME280;58908;51.426;7.714;2023-02-21T07:07:58;100128.47;;;6.96;100.00
71195;BME280;58908;51.426;7.714;2023-02-21T07:10:24;100133.66;;;6.97;100.00
71195;BME280;58908;51.426;7.714;2023-02-21T07:12:51;100137.25;;;6.95;100.00
71195;BME280;58908;51.426;7.714;2023-02-21T07:15:17;100139.75;;;6.97;100.00
71195;BME280;58908;51.426;7.714;2023-02-21T07:17:43;100133.66;;;6.97;100.00
71195;BME280;58908;51.426;7.714;2023-02-21T07:20:11;100131.97;;;6.96;100.00
71195;BME280;58908;51.426;7.714;2023-02-21T07:22:37;100129.25;;;6.97;100.00
71195;BME280;58908;51.426;7.714;2023-02-21T07:25:04;100124.19;;;6.93;100.00
71195;BME280;58908;51.426;7.714;2023-02-21T07:27:30;100131.97;;;6.96;100.00
71195;BME280;58908;51.426;7.714;2023-02-21T07:29:56;100119.81;;;6.94;100.00
71195;BME280;58908;51.426;7.714;2023-02-21T07:32:23;100122.44;;;6.94;100.00
71195;BME280;58908;51.426;7.714;2023-02-21T07:34:49;100125.88;;;6.94;100.00
71195;BME280;58908;51.426;7.714;2023-02-21T07:37:16;100119.75;;;6.95;100.00
71195;BME280;58908;51.426;7.714;2023-02-21T07:39:43;100117.00;;;6.98;100.00
71195;BME280;58908;51.426;7.714;2023-02-21T07:42:09;100116.09;;;6.99;100.00
71195;BME280;58908;51.426;7.714;2023-02-21T07:44:37;100121.19;;;7.03;100.00
71195;BME280;58908;51.426;7.714;2023-02-21T07:47:03;100121.97;;;7.05;100.00
71195;BME280;58908;51.426;7.714;2023-02-21T07:49:30;100120.84;;;7.12;100.00
71195;BME280;58908;51.426;7.714;2023-02-21T07:51:56;100126.88;;;7.14;100.00
71195;BME280;58908;51.426;7.714;2023-02-21T07:54:24;100119.75;;;7.18;100.00
71195;BME280;58908;51.426;7.714;2023-02-21T07:56:50;100118.72;;;7.22;100.00
71195;BME280;58908;51.426;7.714;2023-02-21T07:59:16;100121.16;;;7.26;100.00
71195;BME280;58908;51.426;7.714;2023-02-21T08:01:43;100126.25;;;7.31;100.00
71195;BME280;58908;51.426;7.714;2023-02-21T08:04:09;100123.53;;;7.32;100.00
71195;BME280;58908;51.426;7.714;2023-02-21T08:06:37;100127.94;;;7.32;100.00
71195;BME280;58908;51.426;7.714;2023-02-21T08:09:03;100127.94;;;7.32;100.00
71195;BME280;58908;51.426;7.714;2023-02-21T08:11:31;100124.28;;;7.36;100.00
71195;BME280;58908;51.426;7.714;2023-02-21T08:13:58;100129.44;;;7.39;100.00
71195;BME280;58908;51.426;7.714;2023-02-21T08:16:25;100120.56;;;7.41;100.00
71195;BME280;58908;51.426;7.714;2023-02-21T08:18:52;100124.91;;;7.42;100.00
71195;BME280;58908;51.426;7.714;2023-02-21T08:21:18;100120.16;;;7.52;100.00
71195;BME280;58908;51.426;7.714;2023-02-21T08:23:44;100115.59;;;7.57;100.00
71195;BME280;58908;51.426;7.714;2023-02-21T08:26:11;100123.31;;;7.60;100.00
71195;BME280;58908;51.426;7.714;2023-02-21T08:28:38;100113.53;;;7.65;100.00
71195;BME280;58908;51.426;7.714;2023-02-21T08:31:05;100118.50;;;7.71;100.00
71195;BME280;58908;51.426;7.714;2023-02-21T08:33:31;100126.91;;;7.80;100.00
71195;BME280;58908;51.426;7.714;2023-02-21T08:35:57;100123.75;;;7.71;100.00
71195;BME280;58908;51.426;7.714;2023-02-21T08:38:24;100126.09;;;7.78;100.00
71195;BME280;58908;51.426;7.714;2023-02-21T08:40:51;100125.66;;;7.89;100.00
71195;BME280;58908;51.426;7.714;2023-02-21T08:43:17;100130.44;;;7.79;100.00
71195;BME280;58908;51.426;7.714;2023-02-21T08:45:45;100128.28;;;7.89;100.00
71195;BME280;58908;51.426;7.714;2023-02-21T08:48:11;100136.03;;;7.92;100.00
71195;BME280;58908;51.426;7.714;2023-02-21T08:50:37;100126.44;;;7.91;100.00
71195;BME280;58908;51.426;7.714;2023-02-21T08:53:03;100125.78;;;7.86;100.00
71195;BME280;58908;51.426;7.714;2023-02-21T08:55:30;100125.09;;;7.81;100.00
71195;BME280;58908;51.426;7.714;2023-02-21T08:57:56;100127.25;;;7.71;100.00
71195;BME280;58908;51.426;7.714;2023-02-21T09:00:23;100123.84;;;7.69;100.00
71195;BME280;58908;51.426;7.714;2023-02-21T09:02:53;100120.91;;;7.77;100.00
71195;BME280;58908;51.426;7.714;2023-02-21T09:05:21;100125.28;;;7.76;100.00
71195;BME280;58908;51.426;7.714;2023-02-21T09:07:48;100123.09;;;7.87;100.00
71195;BME280;58908;51.426;7.714;2023-02-21T09:10:15;100120.66;;;7.83;100.00
71195;BME280;58908;51.426;7.714;2023-02-21T09:12:42;100117.91;;;7.86;100.00
71195;BME280;58908;51.426;7.714;2023-02-21T09:15:08;100125.72;;;7.87;100.00
71195;BME280;58908;51.426;7.714;2023-02-21T09:17:34;100124.94;;;7.85;100.00
71195;BME280;58908;51.426;7.714;2023-02-21T09:20:03;100124.28;;;7.80;100.00
71195;BME280;58908;51.426;7.714;2023-02-21T09:22:30;100127.69;;;7.82;100.00
71195;BME280;58908;51.426;7.714;2023-02-21T09:24:57;100125.72;;;7.87;100.00
71195;BME280;58908;51.426;7.714;2023-02-21T09:27:23;100126.41;;;7.92;100.00
71195;BME280;58908;51.426;7.714;2023-02-21T09:30:00;100133.72;;;7.84;100.00
71195;BME280;58908;51.426;7.714;2023-02-21T09:32:26;100130.78;;;7.92;100.00
71195;BME280;58908;51.426;7.714;2023-02-21T09:34:53;100137.88;;;7.90;100.00
71195;BME280;58908;51.426;7.714;2023-02-21T09:37:20;100136.41;;;7.83;100.00
71195;BME280;58908;51.426;7.714;2023-02-21T09:39:46;100142.56;;;7.82;100.00
71195;BME280;58908;51.426;7.714;2023-02-21T09:42:14;100136.16;;;7.89;100.00
71195;BME280;58908;51.426;7.714;2023-02-21T09:44:41;100146.03;;;7.84;100.00
71195;BME280;58908;51.426;7.714;2023-02-21T09:47:09;100148.00;;;7.77;100.00
71195;BME280;58908;51.426;7.714;2023-02-21T09:49:39;100146.03;;;7.84;100.00
71195;BME280;58908;51.426;7.714;2023-02-21T09:52:06;100145.19;;;7.82;100.00
71195;BME280;58908;51.426;7.714;2023-02-21T09:54:39;100148.38;;;7.90;100.00
71195;BME280;58908;51.426;7.714;2023-02-21T09:57:09;100155.69;;;7.82;100.00
71195;BME280;58908;51.426;7.714;2023-02-21T09:59:36;100153.91;;;7.84;100.00
71195;BME280;58908;51.426;7.714;2023-02-21T10:02:08;100154.91;;;7.80;100.00
71195;BME280;58908;51.426;7.714;2023-02-21T10:04:47;100155.97;;;7.76;100.00
71195;BME280;58908;51.426;7.714;2023-02-21T10:07:20;100151.38;;;7.81;100.00
71195;BME280;58908;51.426;7.714;2023-02-21T10:09:51;100158.41;;;7.80;100.00
71195;BME280;58908;51.426;7.714;2023-02-21T10:12:19;100150.44;;;7.82;100.00
71195;BME280;58908;51.426;7.714;2023-02-21T10:14:55;100151.31;;;7.82;100.00
71195;BME280;58908;51.426;7.714;2023-02-21T10:17:28;100144.09;;;7.87;100.00
71195;BME280;58908;51.426;7.714;2023-02-21T10:19:58;100144.78;;;7.92;100.00
71195;BME280;58908;51.426;7.714;2023-02-21T10:22:27;100145.53;;;7.96;100.00
71195;BME280;58908;51.426;7.714;2023-02-21T10:24:56;100159.75;;;7.90;100.00
71195;BME280;58908;51.426;7.714;2023-02-21T10:27:23;100160.28;;;7.98;100.00
71195;BME280;58908;51.426;7.714;2023-02-21T10:29:51;100140.88;;;8.02;100.00
71195;BME280;58908;51.426;7.714;2023-02-21T10:32:19;100151.19;;;8.07;100.00
71195;BME280;58908;51.426;7.714;2023-02-21T10:34:46;100144.47;;;8.00;100.00
71195;BME280;58908;51.426;7.714;2023-02-21T10:37:19;100149.50;;;8.06;100.00
71195;BME280;58908;51.426;7.714;2023-02-21T10:39:49;100147.28;;;7.95;100.00
71195;BME280;58908;51.426;7.714;2023-02-21T10:42:20;100148.94;;;7.98;100.00
71195;BME280;58908;51.426;7.714;2023-02-21T10:44:51;100146.72;;;7.87;100.00
71195;BME280;58908;51.426;7.714;2023-02-21T10:47:18;100149.06;;;7.95;100.00
71195;BME280;58908;51.426;7.714;2023-02-21T10:49:46;100149.16;;;7.92;100.00
71195;BME280;58908;51.426;7.714;2023-02-21T10:52:15;100144.69;;;7.94;100.00
71195;BME280;58908;51.426;7.714;2023-02-21T10:54:46;100152.09;;;7.84;100.00
71195;BME280;58908;51.426;7.714;2023-02-21T10:57:26;100151.88;;;7.90;100.00
71195;BME280;58908;51.426;7.714;2023-02-21T10:59:52;100159.06;;;7.85;100.00
71195;BME280;58908;51.426;7.714;2023-02-21T11:02:27;100152.84;;;7.88;100.00
71195;BME280;58908;51.426;7.714;2023-02-21T11:04:54;100148.25;;;7.93;100.00
71195;BME280;58908;51.426;7.714;2023-02-21T11:07:21;100149.06;;;7.95;100.00
71195;BME280;58908;51.426;7.714;2023-02-21T11:09:48;100136.41;;;8.04;100.00
71195;BME280;58908;51.426;7.714;2023-02-21T11:12:17;100141.16;;;8.16;100.00
71195;BME280;58908;51.426;7.714;2023-02-21T11:15:01;100147.28;;;8.17;100.00
71195;BME280;58908;51.426;7.714;2023-02-21T11:17:29;100146.41;;;8.16;100.00
71195;BME280;58908;51.426;7.714;2023-02-21T11:19:57;100145.94;;;8.28;100.00
71195;BME280;58908;51.426;7.714;2023-02-21T11:22:23;100139.50;;;8.35;100.00
71195;BME280;58908;51.426;7.714;2023-02-21T11:24:52;100135.97;;;8.36;100.00
71195;BME280;58908;51.426;7.714;2023-02-21T11:27:20;100137.28;;;8.46;100.00
71195;BME280;58908;51.426;7.714;2023-02-21T11:29:49;100137.34;;;8.45;100.00
71195;BME280;58908;51.426;7.714;2023-02-21T11:32:25;100143.31;;;8.48;100.00
71195;BME280;58908;51.426;7.714;2023-02-21T11:34:59;100137.69;;;8.57;100.00
71195;BME280;58908;51.426;7.714;2023-02-21T11:37:26;100141.00;;;8.61;100.00
71195;BME280;58908;51.426;7.714;2023-02-21T11:39:52;100145.16;;;8.66;100.00
71195;BME280;58908;51.426;7.714;2023-02-21T11:42:23;100142.31;;;8.71;100.00
71195;BME280;58908;51.426;7.714;2023-02-21T11:44:51;100128.38;;;8.69;100.00
71195;BME280;58908;51.426;7.714;2023-02-21T11:47:31;100131.75;;;8.72;100.00
71195;BME280;58908;51.426;7.714;2023-02-21T11:50:01;100131.16;;;8.86;100.00
71195;BME280;58908;51.426;7.714;2023-02-21T11:52:30;100120.88;;;8.80;100.00
71195;BME280;58908;51.426;7.714;2023-02-21T11:54:58;100120.69;;;8.84;100.00
71195;BME280;58908;51.426;7.714;2023-02-21T11:57:27;100117.41;;;8.79;100.00
71195;BME280;58908;51.426;7.714;2023-02-21T11:59:58;100125.22;;;8.81;100.00
71195;BME280;58908;51.426;7.714;2023-02-21T12:02:46;100125.50;;;8.95;100.00
71195;BME280;58908;51.426;7.714;2023-02-21T12:05:24;100119.66;;;9.07;100.00
71195;BME280;58908;51.426;7.714;2023-02-21T12:07:56;100109.94;;;9.09;100.00
71195;BME280;58908;51.426;7.714;2023-02-21T12:10:30;100096.91;;;9.24;100.00
71195;BME280;58908;51.426;7.714;2023-02-21T12:13:03;100093.28;;;9.45;100.00
71195;BME280;58908;51.426;7.714;2023-02-21T12:15:37;100095.00;;;9.46;100.00
71195;BME280;58908;51.426;7.714;2023-02-21T12:18:13;100090.31;;;9.69;100.00
71195;BME280;58908;51.426;7.714;2023-02-21T12:20:58;100082.72;;;9.63;100.00
71195;BME280;58908;51.426;7.714;2023-02-21T12:23:31;100081.84;;;9.63;100.00
71195;BME280;58908;51.426;7.714;2023-02-21T12:26:09;100083.94;;;9.56;100.00
71195;BME280;58908;51.426;7.714;2023-02-21T12:28:44;100080.22;;;9.60;100.00
71195;BME280;58908;51.426;7.714;2023-02-21T12:31:23;100075.50;;;9.85;100.00
71195;BME280;58908;51.426;7.714;2023-02-21T12:33:54;100071.81;;;9.88;100.00
71195;BME280;58908;51.426;7.714;2023-02-21T12:36:29;100066.94;;;10.16;100.00
71195;BME280;58908;51.426;7.714;2023-02-21T12:39:02;100062.81;;;10.27;100.00
71195;BME280;58908;51.426;7.714;2023-02-21T12:44:23;100054.22;;;11.06;100.00
71195;BME280;58908;51.426;7.714;2023-02-21T12:46:57;100048.25;;;11.33;100.00
71195;BME280;58908;51.426;7.714;2023-02-21T12:49:26;100057.19;;;11.15;100.00
71195;BME280;58908;51.426;7.714;2023-02-21T12:51:55;100042.47;;;11.11;100.00
71195;BME280;58908;51.426;7.714;2023-02-21T12:54:26;100050.03;;;11.02;100.00
71195;BME280;58908;51.426;7.714;2023-02-21T12:56:56;100046.16;;;10.76;100.00
71195;BME280;58908;51.426;7.714;2023-02-21T12:59:24;100049.50;;;10.80;100.00
71195;BME280;58908;51.426;7.714;2023-02-21T13:01:54;100044.91;;;10.99;100.00
71195;BME280;58908;51.426;7.714;2023-02-21T13:04:23;100044.00;;;11.00;100.00
71195;BME280;58908;51.426;7.714;2023-02-21T13:06:54;100045.88;;;11.13;100.00
71195;BME280;58908;51.426;7.714;2023-02-21T13:09:24;100033.81;;;10.92;100.00
71195;BME280;58908;51.426;7.714;2023-02-21T13:11:55;100041.69;;;10.61;100.00
71195;BME280;58908;51.426;7.714;2023-02-21T13:14:23;100039.91;;;10.62;100.00
71195;BME280;58908;51.426;7.714;2023-02-21T13:16:52;100031.28;;;10.58;100.00
71195;BME280;58908;51.426;7.714;2023-02-21T13:19:18;100028.88;;;10.54;100.00